createdAt,value
2018-05-25T00:01:51.798Z,2.77
2018-05-25T00:04:20.896Z,2.37
2018-05-25T00:06:49.883Z,2.30
2018-05-25T00:09:17.966Z,2.50
2018-05-25T00:11:46.047Z,2.20
2018-05-25T00:14:14.147Z,2.10
2018-05-25T00:16:44.279Z,2.53
2018-05-25T00:19:12.357Z,2.53
2018-05-25T00:21:42.423Z,2.57
2018-05-25T00:24:13.737Z,2.80
2018-05-25T00:26:47.545Z,2.37
2018-05-25T00:29:15.667Z,2.77
2018-05-25T00:31:45.876Z,2.80
2018-05-25T00:34:14.904Z,2.60
2018-05-25T00:36:42.981Z,2.67
2018-05-25T00:39:11.073Z,2.40
2018-05-25T00:41:39.235Z,2.30
2018-05-25T00:44:16.626Z,2.30
2018-05-25T00:46:44.701Z,2.50
2018-05-25T00:49:14.614Z,2.40
2018-05-25T00:51:44.679Z,2.17
2018-05-25T00:54:12.761Z,2.37
2018-05-25T00:56:46.530Z,2.30
2018-05-25T00:59:18.654Z,3.40
2018-05-25T01:01:46.744Z,2.50
2018-05-25T01:04:18.323Z,2.83
2018-05-25T01:06:47.295Z,2.27
2018-05-25T01:09:16.151Z,2.80
2018-05-25T01:11:45.225Z,3.10
2018-05-25T01:14:14.062Z,3.40
2018-05-25T01:16:42.148Z,2.63
2018-05-25T01:19:10.237Z,2.77
2018-05-25T01:21:38.339Z,2.70
2018-05-25T01:24:06.449Z,2.63
2018-05-25T01:26:41.088Z,2.40
2018-05-25T01:29:09.187Z,3.60
2018-05-25T01:31:38.191Z,2.50
2018-05-25T01:34:07.203Z,2.70
2018-05-25T01:36:35.293Z,2.57
2018-05-25T01:39:09.024Z,2.57
2018-05-25T01:41:37.661Z,3.10
2018-05-25T01:44:10.793Z,2.20
2018-05-25T01:46:40.011Z,2.53
2018-05-25T01:49:08.106Z,2.53
2018-05-25T01:51:36.444Z,2.97
2018-05-25T01:57:05.105Z,2.50
2018-05-25T01:59:33.465Z,2.90
2018-05-25T02:02:01.541Z,2.90
2018-05-25T02:04:41.000Z,2.80
2018-05-25T02:07:10.090Z,2.83
2018-05-25T02:09:41.923Z,2.97
2018-05-25T02:12:10.067Z,2.80
2018-05-25T02:14:39.140Z,2.90
2018-05-25T02:17:08.498Z,2.73
2018-05-25T02:19:45.598Z,2.63
2018-05-25T02:22:21.236Z,3.60
2018-05-25T02:24:49.327Z,2.50
2018-05-25T02:27:28.671Z,2.70
2018-05-25T02:29:58.729Z,2.80
2018-05-25T02:32:27.582Z,4.80
2018-05-25T02:34:55.680Z,2.73
2018-05-25T02:37:25.737Z,2.80
2018-05-25T02:39:57.030Z,3.07
2018-05-25T02:42:25.115Z,3.37
2018-05-25T02:44:53.242Z,2.87
2018-05-25T02:47:28.912Z,3.73
2018-05-25T02:49:58.003Z,2.97
2018-05-25T02:52:26.095Z,2.67
2018-05-25T02:55:13.356Z,2.73
2018-05-25T02:57:43.192Z,2.80
2018-05-25T03:00:12.236Z,2.90
2018-05-25T03:02:56.193Z,2.73
2018-05-25T03:08:29.192Z,2.63
2018-05-25T03:10:57.271Z,2.70
2018-05-25T03:13:25.822Z,2.83
2018-05-25T03:15:53.930Z,3.40
2018-05-25T03:18:22.963Z,3.20
2018-05-25T03:20:52.983Z,3.03
2018-05-25T03:23:24.778Z,3.17
2018-05-25T03:25:54.791Z,3.00
2018-05-25T03:28:29.045Z,3.10
2018-05-25T03:30:58.132Z,2.80
2018-05-25T03:33:26.219Z,3.10
2018-05-25T03:35:57.976Z,3.40
2018-05-25T03:38:26.065Z,2.77
2018-05-25T03:41:02.854Z,3.30
2018-05-25T03:43:30.937Z,3.10
2018-05-25T03:46:00.961Z,3.33
2018-05-25T03:48:33.106Z,3.10
2018-05-25T03:51:06.177Z,3.20
2018-05-25T03:53:34.266Z,3.40
2018-05-25T03:56:05.798Z,3.30
2018-05-25T03:58:45.599Z,3.03
2018-05-25T04:01:26.380Z,3.53
2018-05-25T04:03:54.529Z,3.30
2018-05-25T04:06:24.553Z,3.70
2018-05-25T04:08:53.492Z,3.10
2018-05-25T04:11:22.577Z,3.13
2018-05-25T04:13:51.561Z,2.97
2018-05-25T04:16:26.832Z,3.33
2018-05-25T04:18:54.895Z,3.20
2018-05-25T04:21:23.040Z,3.37
2018-05-25T04:23:51.144Z,2.87
2018-05-25T04:26:19.801Z,2.70
2018-05-25T04:28:53.265Z,3.23
2018-05-25T04:31:23.111Z,2.70
2018-05-25T04:33:52.099Z,3.63
2018-05-25T04:36:22.150Z,3.03
2018-05-25T04:38:51.152Z,3.00
2018-05-25T04:41:21.179Z,2.93
2018-05-25T04:43:49.308Z,2.90
2018-05-25T04:46:23.306Z,3.00
2018-05-25T04:48:51.401Z,3.00
2018-05-25T04:51:20.579Z,3.43
2018-05-25T04:53:48.680Z,3.10
2018-05-25T04:56:16.782Z,3.10
2018-05-25T04:58:44.868Z,3.53
2018-05-25T05:01:13.069Z,3.20
2018-05-25T05:03:41.150Z,3.07
2018-05-25T05:06:09.359Z,3.30
2018-05-25T05:08:38.386Z,3.13
2018-05-25T05:11:07.408Z,3.47
2018-05-25T05:13:36.251Z,4.00
2018-05-25T05:16:07.250Z,4.80
2018-05-25T05:18:35.354Z,3.80
2018-05-25T05:21:13.844Z,5.83
2018-05-25T05:23:44.599Z,3.80
2018-05-25T05:26:13.427Z,4.70
2018-05-25T05:28:41.900Z,5.00
2018-05-25T05:31:11.039Z,9.07
2018-05-25T05:33:44.519Z,5.40
2018-05-25T05:36:18.070Z,7.37
2018-05-25T05:38:47.138Z,7.10
2018-05-25T05:41:15.254Z,4.97
2018-05-25T05:43:44.342Z,5.53
2018-05-25T05:46:13.329Z,6.00
2018-05-25T05:48:43.181Z,7.70
2018-05-25T05:51:14.952Z,4.90
2018-05-25T05:53:44.972Z,4.63
2018-05-25T05:56:13.063Z,4.27
2018-05-25T05:58:43.090Z,4.60
2018-05-25T06:01:12.188Z,4.57
2018-05-25T06:03:41.199Z,4.47
2018-05-25T06:06:13.460Z,3.80
2018-05-25T06:08:44.229Z,4.30
2018-05-25T06:11:13.274Z,3.40
2018-05-25T06:13:41.429Z,4.63
2018-05-25T06:16:09.599Z,5.33
2018-05-25T06:18:41.361Z,4.70
2018-05-25T06:21:15.841Z,4.27
2018-05-25T06:23:44.956Z,4.50
2018-05-25T06:26:13.105Z,4.40
2018-05-25T06:28:47.402Z,4.80
2018-05-25T06:31:21.753Z,4.50
2018-05-25T06:33:50.547Z,4.00
2018-05-25T06:36:18.654Z,3.97
2018-05-25T06:38:52.479Z,4.47
2018-05-25T06:41:22.528Z,3.83
2018-05-25T06:43:56.697Z,4.20
2018-05-25T06:46:25.923Z,3.57
2018-05-25T06:48:54.007Z,4.30
2018-05-25T06:51:25.156Z,3.80
2018-05-25T06:53:55.156Z,3.80
2018-05-25T06:56:23.280Z,4.37
2018-05-25T06:58:51.376Z,4.03
2018-05-25T07:01:20.502Z,3.67
2018-05-25T07:03:50.723Z,3.27
2018-05-25T07:06:19.156Z,4.60
2018-05-25T07:08:54.401Z,3.87
2018-05-25T07:11:25.884Z,3.57
2018-05-25T07:13:54.989Z,3.70
2018-05-25T07:16:23.736Z,3.70
2018-05-25T07:18:51.827Z,3.80
2018-05-25T07:21:19.918Z,4.30
2018-05-25T07:23:50.014Z,4.10
2018-05-25T07:26:18.151Z,3.90
2018-05-25T07:28:46.303Z,3.70
2018-05-25T07:31:14.442Z,4.43
2018-05-25T07:33:43.301Z,3.10
2018-05-25T07:36:11.400Z,3.63
2018-05-25T07:38:39.725Z,3.33
2018-05-25T07:41:08.675Z,3.60
2018-05-25T07:43:40.334Z,3.70
2018-05-25T07:46:12.235Z,3.10
2018-05-25T07:48:41.363Z,3.17
2018-05-25T07:51:10.429Z,4.00
2018-05-25T07:53:39.389Z,3.30
2018-05-25T07:56:08.403Z,3.27
2018-05-25T07:58:37.279Z,3.40
2018-05-25T08:01:06.409Z,3.20
2018-05-25T08:03:35.310Z,3.17
2018-05-25T08:06:06.869Z,3.30
2018-05-25T08:08:46.053Z,3.87
2018-05-25T08:11:16.074Z,3.70
2018-05-25T08:13:44.927Z,3.80
2018-05-25T08:16:13.015Z,3.57
2018-05-25T08:18:41.099Z,3.37
2018-05-25T08:21:10.171Z,3.03
2018-05-25T08:23:40.201Z,3.50
2018-05-25T08:26:09.184Z,3.40
2018-05-25T08:28:37.296Z,3.70
2018-05-25T08:31:08.445Z,3.40
2018-05-25T08:33:40.091Z,3.40
2018-05-25T08:36:12.774Z,3.37
2018-05-25T08:38:40.879Z,3.13
2018-05-25T08:41:09.082Z,4.57
2018-05-25T08:43:37.177Z,3.07
2018-05-25T08:46:10.338Z,3.70
2018-05-25T08:48:38.436Z,3.57
2018-05-25T08:51:08.435Z,4.30
2018-05-25T08:53:40.751Z,3.93
2018-05-25T08:56:10.167Z,4.23
2018-05-25T08:58:38.325Z,3.30
2018-05-25T09:01:06.661Z,3.63
2018-05-25T09:03:34.848Z,3.10
2018-05-25T09:06:04.875Z,3.80
2018-05-25T09:08:36.705Z,3.40
2018-05-25T09:11:11.296Z,3.20
2018-05-25T09:13:41.396Z,3.73
2018-05-25T09:16:10.532Z,3.50
2018-05-25T09:18:46.320Z,3.20
2018-05-25T09:21:14.449Z,3.23
2018-05-25T09:23:46.355Z,3.53
2018-05-25T09:26:14.449Z,3.10
2018-05-25T09:28:42.546Z,3.70
2018-05-25T09:31:10.679Z,3.47
2018-05-25T09:33:42.637Z,4.07
2018-05-25T09:36:11.716Z,3.33
2018-05-25T09:38:39.822Z,3.90
2018-05-25T09:41:07.921Z,3.30
2018-05-25T09:43:36.062Z,3.03
2018-05-25T09:46:05.118Z,3.73
2018-05-25T09:48:35.158Z,3.70
2018-05-25T09:51:09.086Z,3.30
2018-05-25T09:53:38.096Z,3.60
2018-05-25T09:56:20.077Z,3.27
2018-05-25T09:58:48.183Z,3.73
2018-05-25T10:01:17.140Z,3.23
2018-05-25T10:03:46.036Z,3.60
2018-05-25T10:06:16.816Z,3.27
2018-05-25T10:08:44.951Z,3.43
2018-05-25T10:11:13.054Z,3.30
2018-05-25T10:13:41.940Z,2.80
2018-05-25T10:16:14.162Z,3.20
2018-05-25T10:18:42.559Z,3.30
2018-05-25T10:21:10.741Z,2.97
2018-05-25T10:23:38.901Z,3.30
2018-05-25T10:26:07.030Z,3.97
2018-05-25T10:28:35.173Z,3.20
2018-05-25T10:31:03.273Z,3.13
2018-05-25T10:33:32.424Z,3.40
2018-05-25T10:36:02.476Z,2.77
2018-05-25T10:38:32.588Z,3.10
2018-05-25T10:41:00.740Z,3.10
2018-05-25T10:43:29.802Z,3.40
2018-05-25T10:45:58.854Z,3.50
2018-05-25T10:48:26.948Z,3.17
2018-05-25T10:50:58.041Z,3.30
2018-05-25T10:53:27.297Z,3.17
2018-05-25T10:55:57.356Z,2.87
2018-05-25T10:58:39.583Z,2.47
2018-05-25T11:01:07.665Z,3.47
2018-05-25T11:03:36.769Z,3.50
2018-05-25T11:06:04.895Z,3.43
2018-05-25T11:08:39.704Z,3.70
2018-05-25T11:11:07.802Z,3.83
2018-05-25T11:13:36.133Z,3.20
2018-05-25T11:16:08.099Z,3.70
2018-05-25T11:18:37.049Z,2.23
2018-05-25T11:21:05.166Z,2.70
2018-05-25T11:23:36.399Z,2.70
2018-05-25T11:26:08.943Z,2.50
2018-05-25T11:28:37.054Z,3.27
2018-05-25T11:31:05.160Z,2.67
2018-05-25T11:33:33.281Z,3.97
2018-05-25T11:36:01.409Z,2.70
2018-05-25T11:38:34.210Z,2.97
2018-05-25T11:41:02.323Z,2.70
2018-05-25T11:43:31.293Z,2.77
2018-05-25T11:46:00.273Z,2.60
2018-05-25T11:48:28.384Z,2.53
2018-05-25T11:50:56.515Z,3.40
2018-05-25T11:53:26.493Z,2.73
2018-05-25T11:55:54.571Z,3.10
2018-05-25T11:58:28.157Z,2.40
2018-05-25T12:01:01.044Z,3.17
2018-05-25T12:03:30.054Z,2.87
2018-05-25T12:05:58.156Z,2.57
2018-05-25T12:08:28.291Z,3.30
2018-05-25T12:10:56.408Z,2.57
2018-05-25T12:13:24.487Z,3.50
2018-05-25T12:15:52.618Z,2.83
2018-05-25T12:18:21.481Z,3.00
2018-05-25T12:20:51.611Z,2.07
2018-05-25T12:23:20.737Z,2.37
2018-05-25T12:25:48.829Z,2.53
2018-05-25T12:28:17.681Z,3.00
2018-05-25T12:30:48.095Z,3.30
2018-05-25T12:33:16.226Z,2.90
2018-05-25T12:35:44.935Z,2.80
2018-05-25T12:38:17.300Z,2.90
2018-05-25T12:40:46.498Z,2.87
2018-05-25T12:43:14.636Z,2.30
2018-05-25T12:45:43.517Z,2.87
2018-05-25T12:48:24.122Z,2.30
2018-05-25T12:50:54.899Z,3.00
2018-05-25T12:53:22.988Z,2.83
2018-05-25T12:55:55.178Z,2.70
2018-05-25T12:58:23.474Z,2.73
2018-05-25T13:00:51.674Z,2.67
2018-05-25T13:03:19.788Z,2.60
2018-05-25T13:05:48.836Z,2.73
2018-05-25T13:08:16.932Z,2.80
2018-05-25T13:10:49.084Z,2.90
2018-05-25T13:13:17.216Z,3.13
2018-05-25T13:15:50.785Z,3.20
2018-05-25T13:18:20.819Z,2.87
2018-05-25T13:20:49.078Z,2.63
2018-05-25T13:23:17.169Z,2.47
2018-05-25T13:25:46.982Z,2.73
2018-05-25T13:28:15.162Z,2.70
2018-05-25T13:30:44.078Z,2.60
2018-05-25T13:33:16.992Z,2.20
2018-05-25T13:35:47.617Z,2.40
2018-05-25T13:38:16.773Z,2.40
2018-05-25T13:40:44.884Z,2.40
2018-05-25T13:43:13.010Z,2.90
2018-05-25T13:45:44.307Z,2.40
2018-05-25T13:48:12.466Z,2.57
2018-05-25T13:50:40.564Z,2.80
2018-05-25T13:53:10.608Z,2.43
2018-05-25T13:55:42.588Z,2.57
2018-05-25T13:58:12.689Z,2.67
2018-05-25T14:00:40.858Z,3.20
2018-05-25T14:03:10.009Z,2.90
2018-05-25T14:05:40.231Z,2.60
2018-05-25T14:08:09.435Z,2.40
2018-05-25T14:10:37.588Z,2.30
2018-05-25T14:13:06.646Z,2.10
2018-05-25T14:15:34.754Z,3.13
2018-05-25T14:18:04.844Z,2.50
2018-05-25T14:20:34.889Z,2.20
2018-05-25T14:23:03.092Z,2.10
2018-05-25T14:25:31.196Z,2.27
2018-05-25T14:28:01.049Z,2.50
2018-05-25T14:30:30.094Z,2.40
2018-05-25T14:32:58.199Z,2.13
2018-05-25T14:35:26.526Z,2.60
2018-05-25T14:37:56.571Z,2.90
2018-05-25T14:40:29.579Z,2.17
2018-05-25T14:43:02.665Z,2.30
2018-05-25T14:45:30.783Z,3.30
2018-05-25T14:47:58.899Z,2.50
2018-05-25T14:50:29.130Z,2.50
2018-05-25T14:52:58.421Z,2.20
2018-05-25T14:55:26.528Z,2.10
2018-05-25T14:57:56.593Z,2.37
2018-05-25T15:00:24.690Z,2.20
2018-05-25T15:02:53.821Z,2.80
2018-05-25T15:05:22.922Z,2.17
2018-05-25T15:07:54.944Z,2.50
2018-05-25T15:10:23.028Z,2.53
2018-05-25T15:12:55.391Z,2.23
2018-05-25T15:15:23.708Z,2.00
2018-05-25T15:17:52.830Z,2.17
2018-05-25T15:20:22.203Z,1.73
2018-05-25T15:22:52.299Z,1.60
2018-05-25T15:25:21.293Z,2.40
2018-05-25T15:27:50.330Z,2.13
2018-05-25T15:30:19.411Z,2.43
2018-05-25T15:32:48.287Z,2.17
2018-05-25T15:35:17.369Z,2.07
2018-05-25T15:37:45.509Z,2.93
2018-05-25T15:40:13.625Z,1.90
2018-05-25T15:42:43.731Z,1.93
2018-05-25T15:45:11.843Z,2.10
2018-05-25T15:47:40.957Z,1.83
2018-05-25T15:50:09.108Z,2.63
2018-05-25T15:52:37.723Z,2.77
2018-05-25T15:55:05.849Z,2.20
2018-05-25T15:57:34.071Z,1.90
2018-05-25T16:00:05.856Z,2.00
2018-05-25T16:02:35.261Z,1.90
2018-05-25T16:05:05.270Z,2.03
2018-05-25T16:07:33.590Z,1.70
2018-05-25T16:10:05.890Z,2.30
2018-05-25T16:12:38.586Z,2.23
2018-05-25T16:15:06.687Z,2.37
2018-05-25T16:17:35.581Z,2.67
2018-05-25T16:20:07.089Z,2.23
2018-05-25T16:22:35.959Z,2.30
2018-05-25T16:25:04.818Z,2.03
2018-05-25T16:27:32.934Z,2.30
2018-05-25T16:30:01.993Z,1.93
2018-05-25T16:32:33.767Z,1.80
2018-05-25T16:35:05.737Z,1.67
2018-05-25T16:37:37.508Z,1.87
2018-05-25T16:40:07.535Z,2.27
2018-05-25T16:42:36.384Z,1.70
2018-05-25T16:45:06.271Z,1.90
2018-05-25T16:47:34.353Z,1.50
2018-05-25T16:50:03.537Z,1.43
2018-05-25T16:52:32.410Z,1.80
2018-05-25T16:55:02.340Z,1.40
2018-05-25T16:57:32.104Z,1.47
2018-05-25T17:00:02.148Z,1.60
2018-05-25T17:02:38.084Z,1.30
2018-05-25T17:05:07.965Z,1.23
2018-05-25T17:07:36.140Z,1.67
2018-05-25T17:10:04.315Z,1.80
2018-05-25T17:12:35.682Z,1.80
2018-05-25T17:15:14.957Z,1.90
2018-05-25T17:17:43.132Z,1.80
2018-05-25T17:20:12.248Z,2.20
2018-05-25T17:22:42.297Z,1.90
2018-05-25T17:25:11.314Z,2.00
2018-05-25T17:27:43.135Z,1.60
2018-05-25T17:30:11.325Z,1.80
2018-05-25T17:32:45.529Z,2.10
2018-05-25T17:35:13.690Z,1.90
2018-05-25T17:37:41.768Z,2.30
2018-05-25T17:40:13.343Z,1.80
2018-05-25T17:42:42.478Z,1.90
2018-05-25T17:45:10.576Z,2.20
2018-05-25T17:47:39.684Z,1.70
2018-05-25T17:50:11.311Z,2.23
2018-05-25T17:52:39.527Z,1.83
2018-05-25T17:55:09.337Z,2.20
2018-05-25T17:57:40.875Z,2.60
2018-05-25T18:00:09.887Z,2.70
2018-05-25T18:02:38.002Z,1.90
2018-05-25T18:05:06.078Z,1.30
2018-05-25T18:07:35.143Z,1.50
2018-05-25T18:10:03.237Z,1.50
2018-05-25T18:12:31.310Z,2.00
2018-05-25T18:15:04.530Z,2.53
2018-05-25T18:17:32.647Z,1.80
2018-05-25T18:20:00.754Z,2.00
2018-05-25T18:22:29.826Z,1.93
2018-05-25T18:25:02.380Z,1.73
2018-05-25T18:27:30.549Z,2.13
2018-05-25T18:29:58.670Z,2.27
2018-05-25T18:32:26.800Z,1.90
2018-05-25T18:34:54.862Z,1.70
2018-05-25T18:37:28.424Z,2.27
2018-05-25T18:39:58.247Z,2.47
2018-05-25T18:42:31.871Z,2.47
2018-05-25T18:45:01.952Z,2.00
2018-05-25T18:47:33.640Z,2.07
2018-05-25T18:50:07.794Z,1.67
2018-05-25T18:52:37.822Z,2.60
2018-05-25T18:55:05.910Z,2.80
2018-05-25T18:57:35.004Z,2.70
2018-05-25T19:00:03.090Z,2.40
2018-05-25T19:02:31.181Z,1.87
2018-05-25T19:05:01.222Z,1.70
2018-05-25T19:07:37.270Z,1.80
2018-05-25T19:10:08.271Z,2.93
2018-05-25T19:12:36.403Z,2.97
2018-05-25T19:15:06.233Z,2.80
2018-05-25T19:20:43.062Z,1.80
2018-05-25T19:23:13.170Z,2.40
